Time;durP1;ratioP1;P1;durP2;ratioP2;P2;SDS_P1;SDS_P2;PMS_P1;PMS_P2;Temp;Humidity;BMP_temperature;BMP_pressure;BME280_temperature;BME280_humidity;BME280_pressure;Samples;Min_cycle;Max_cycle;Signal;HPM_P1;HPM_P2
2022/11/21 00:00:11;;;;;;;5.87;4.13;;;8.00;99.90;;;;;;5073623;28;20212;-87
2022/11/21 00:02:43;;;;;;;5.90;4.47;;;7.90;99.90;;;;;;5077353;28;20214;-87
2022/11/21 00:05:14;;;;;;;6.87;4.57;;;7.80;99.90;;;;;;5075758;28;20294;-87
2022/11/21 00:07:44;;;;;;;7.03;4.10;;;7.70;99.90;;;;;;5072669;28;20573;-86
2022/11/21 00:10:15;;;;;;;4.73;3.27;;;7.70;99.90;;;;;;5062871;28;20291;-86
2022/11/21 00:12:46;;;;;;;8.27;3.63;;;7.60;99.90;;;;;;5057183;28;20272;-87
2022/11/21 00:15:16;;;;;;;5.00;3.20;;;7.60;99.90;;;;;;5068206;28;20730;-85
2022/11/21 00:17:49;;;;;;;6.73;3.80;;;7.50;99.90;;;;;;5060739;28;20204;-86
2022/11/21 00:20:21;;;;;;;3.60;2.77;;;7.50;99.90;;;;;;5064017;28;20616;-86
2022/11/21 00:22:52;;;;;;;5.17;3.23;;;7.30;99.90;;;;;;5079392;28;20243;-87
2022/11/21 00:25:23;;;;;;;3.83;3.10;;;7.20;99.90;;;;;;5065185;28;20229;-86
2022/11/21 00:27:55;;;;;;;4.07;2.60;;;7.20;99.90;;;;;;5072784;28;20235;-86
2022/11/21 00:30:25;;;;;;;3.67;2.90;;;7.10;99.90;;;;;;5073214;28;20246;-85
2022/11/21 00:32:59;;;;;;;4.17;3.17;;;7.00;99.90;;;;;;5062589;28;20211;-88
2022/11/21 00:35:31;;;;;;;7.07;3.23;;;6.90;99.90;;;;;;5055170;28;20389;-86
2022/11/21 00:38:02;;;;;;;4.27;3.37;;;6.80;99.90;;;;;;5066612;28;20299;-86
2022/11/21 00:40:32;;;;;;;4.03;3.43;;;6.70;99.90;;;;;;5072007;28;20298;-86
2022/11/21 00:43:03;;;;;;;6.40;4.37;;;6.70;99.90;;;;;;5057278;28;20243;-87
2022/11/21 00:45:33;;;;;;;5.53;3.67;;;6.60;99.90;;;;;;5061677;28;20279;-87
2022/11/21 00:48:06;;;;;;;8.50;3.93;;;6.50;99.90;;;;;;5065249;28;20200;-86
2022/11/21 00:50:37;;;;;;;5.60;3.80;;;6.50;99.90;;;;;;5068377;28;20254;-87
2022/11/21 00:53:09;;;;;;;4.50;3.43;;;6.40;99.90;;;;;;5067242;28;20337;-87
2022/11/21 00:55:39;;;;;;;4.53;3.17;;;6.30;99.90;;;;;;5071001;28;20250;-87
2022/11/21 00:58:10;;;;;;;3.73;3.20;;;6.30;99.90;;;;;;5067872;28;20287;-86
2022/11/21 01:00:41;;;;;;;4.40;3.37;;;6.20;99.90;;;;;;5076672;28;20246;-85
2022/11/21 01:03:13;;;;;;;3.57;2.83;;;6.20;99.90;;;;;;5083823;28;20199;-87
2022/11/21 01:05:43;;;;;;;7.17;3.40;;;6.20;99.90;;;;;;5096042;28;20286;-86
2022/11/21 01:08:14;;;;;;;6.00;3.37;;;6.10;99.90;;;;;;5082248;28;20250;-85
2022/11/21 01:10:45;;;;;;;5.47;3.40;;;6.10;99.90;;;;;;5088427;28;20282;-86
2022/11/21 01:13:15;;;;;;;5.73;3.83;;;6.00;99.90;;;;;;5076130;28;20211;-86
2022/11/21 01:15:46;;;;;;;5.83;3.33;;;6.00;99.90;;;;;;5076508;28;20334;-87
2022/11/21 01:18:18;;;;;;;6.93;3.60;;;6.00;99.90;;;;;;5090456;28;20212;-86
2022/11/21 01:20:49;;;;;;;5.73;4.00;;;6.00;99.90;;;;;;5063284;28;20214;-86
2022/11/21 01:23:20;;;;;;;11.63;5.40;;;6.00;99.90;;;;;;5075070;28;20214;-87
2022/11/21 01:25:51;;;;;;;7.20;5.10;;;6.00;99.90;;;;;;5081610;28;20203;-86
2022/11/21 01:28:21;;;;;;;10.13;5.17;;;6.00;99.90;;;;;;5078623;28;20269;-86
2022/11/21 01:30:52;;;;;;;6.90;4.80;;;6.00;99.90;;;;;;5087999;28;20722;-86
2022/11/21 01:33:24;;;;;;;6.63;4.00;;;6.00;99.90;;;;;;5085145;28;20246;-85
2022/11/21 01:35:55;;;;;;;4.83;3.73;;;5.90;99.90;;;;;;5076505;28;20318;-85
2022/11/21 01:38:25;;;;;;;6.57;3.40;;;5.90;99.90;;;;;;5092366;28;20263;-86
2022/11/21 01:40:56;;;;;;;3.80;3.13;;;5.90;99.90;;;;;;5080453;28;20204;-85
2022/11/21 01:43:26;;;;;;;5.33;3.47;;;5.90;99.90;;;;;;5086857;28;20220;-86
2022/11/21 01:45:59;;;;;;;5.80;3.60;;;5.90;99.90;;;;;;5073915;28;20238;-85
2022/11/21 01:48:38;;;;;;;5.83;3.50;;;5.90;99.90;;;;;;5059906;28;20208;-87
2022/11/21 01:51:15;;;;;;;6.67;4.00;;;5.90;99.90;;;;;;5071131;28;20203;-85
2022/11/21 01:53:51;;;;;;;5.37;4.13;;;5.90;99.90;;;;;;5061685;28;20215;-85
2022/11/21 01:56:24;;;;;;;6.70;4.67;;;5.90;99.90;;;;;;5055017;28;20577;-87
2022/11/21 01:58:58;;;;;;;9.13;5.00;;;5.90;99.90;;;;;;5055306;28;20204;-85
2022/11/21 02:01:30;;;;;;;8.87;5.57;;;5.90;99.90;;;;;;5072938;28;20234;-86
2022/11/21 02:04:05;;;;;;;6.00;4.90;;;5.90;99.90;;;;;;5074700;28;20312;-86
2022/11/21 02:06:37;;;;;;;5.77;4.73;;;5.90;99.90;;;;;;5076054;28;20287;-87
2022/11/21 02:09:09;;;;;;;8.73;5.10;;;5.90;99.90;;;;;;5077441;28;20210;-85
2022/11/21 02:11:45;;;;;;;7.67;5.30;;;5.80;99.90;;;;;;5083495;28;20210;-86
2022/11/21 02:14:16;;;;;;;6.43;4.73;;;5.90;99.90;;;;;;5094974;28;20574;-86
2022/11/21 02:16:47;;;;;;;6.17;4.63;;;5.90;99.90;;;;;;5086477;28;20313;-85
2022/11/21 02:19:28;;;;;;;9.67;6.40;;;5.90;99.90;;;;;;5095300;28;20254;-86
2022/11/21 02:22:08;;;;;;;8.27;6.40;;;5.90;99.90;;;;;;5070931;28;20238;-94
2022/11/21 02:24:45;;;;;;;8.57;5.93;;;5.90;99.90;;;;;;5084491;28;20287;-86
2022/11/21 02:27:17;;;;;;;6.00;4.70;;;5.90;99.90;;;;;;5054624;28;20210;-87
2022/11/21 02:29:48;;;;;;;7.47;5.37;;;5.90;99.90;;;;;;5066980;28;20283;-86
2022/11/21 02:32:23;;;;;;;7.83;5.60;;;5.90;99.90;;;;;;5071838;28;20210;-86
2022/11/21 02:34:54;;;;;;;8.57;6.03;;;5.90;99.90;;;;;;5091652;28;20248;-85
2022/11/21 02:37:25;;;;;;;7.20;5.30;;;5.90;99.90;;;;;;5087109;28;20294;-85
2022/11/21 02:39:57;;;;;;;7.50;6.00;;;5.90;99.90;;;;;;5065695;28;20226;-86
2022/11/21 02:42:33;;;;;;;8.67;6.60;;;5.90;99.90;;;;;;5084349;28;20572;-86
2022/11/21 02:45:12;;;;;;;7.87;5.53;;;5.90;99.90;;;;;;5065098;28;20425;-86
2022/11/21 02:47:44;;;;;;;7.73;5.33;;;5.90;99.90;;;;;;5065905;28;20204;-87
2022/11/21 02:50:18;;;;;;;9.80;5.40;;;5.80;99.90;;;;;;5075938;28;20641;-86
2022/11/21 02:52:49;;;;;;;6.70;5.23;;;5.80;99.90;;;;;;5074451;28;20731;-85
2022/11/21 02:55:20;;;;;;;9.27;4.90;;;5.80;99.90;;;;;;5069970;28;20231;-87
2022/11/21 02:57:52;;;;;;;6.93;4.50;;;5.80;99.90;;;;;;5086257;28;20215;-85
2022/11/21 03:00:23;;;;;;;6.17;4.03;;;5.80;99.90;;;;;;5073954;28;20664;-86
2022/11/21 03:02:54;;;;;;;5.23;4.13;;;5.80;99.90;;;;;;5057741;28;20236;-86
2022/11/21 03:05:25;;;;;;;5.70;4.10;;;5.90;99.90;;;;;;5057727;28;20240;-87
2022/11/21 03:07:56;;;;;;;7.33;4.37;;;5.90;99.90;;;;;;5056991;28;20200;-86
2022/11/21 03:10:27;;;;;;;7.93;4.53;;;5.90;99.90;;;;;;5068221;28;20306;-87
2022/11/21 03:13:01;;;;;;;5.53;4.10;;;5.90;99.90;;;;;;5073856;28;20243;-86
2022/11/21 03:15:33;;;;;;;6.47;4.77;;;5.80;99.90;;;;;;5074213;28;20226;-86
2022/11/21 03:18:04;;;;;;;5.90;4.50;;;5.90;99.90;;;;;;5069584;28;20280;-86
2022/11/21 03:20:35;;;;;;;5.23;3.77;;;5.90;99.90;;;;;;5077898;28;20287;-86
2022/11/21 03:23:06;;;;;;;6.80;4.60;;;5.90;99.90;;;;;;5076108;28;20263;-86
2022/11/21 03:25:38;;;;;;;6.50;4.00;;;5.90;99.90;;;;;;5082360;28;20294;-85
2022/11/21 03:28:10;;;;;;;7.27;4.47;;;5.90;99.90;;;;;;5079436;28;20208;-86
2022/11/21 03:30:41;;;;;;;5.03;3.83;;;5.90;99.90;;;;;;5080762;28;20203;-86
2022/11/21 03:33:12;;;;;;;5.67;4.00;;;5.90;99.90;;;;;;5093157;28;20240;-85
2022/11/21 03:35:42;;;;;;;6.73;4.40;;;5.90;99.90;;;;;;5059990;28;20238;-86
2022/11/21 03:38:16;;;;;;;7.73;4.47;;;6.00;99.90;;;;;;5058807;28;20243;-88
2022/11/21 03:40:47;;;;;;;5.20;3.70;;;6.00;99.90;;;;;;5064145;28;20694;-86
2022/11/21 03:43:19;;;;;;;4.77;3.87;;;6.00;99.90;;;;;;5087644;28;20234;-85
2022/11/21 03:45:49;;;;;;;4.67;4.00;;;6.00;99.90;;;;;;5078405;28;20206;-85
2022/11/21 03:48:20;;;;;;;7.10;4.60;;;6.10;99.90;;;;;;5063458;28;20209;-86
2022/11/21 03:50:51;;;;;;;6.90;4.20;;;6.10;99.90;;;;;;5066917;28;20292;-86
2022/11/21 03:53:22;;;;;;;6.87;3.97;;;6.10;99.90;;;;;;5076915;28;20314;-87
2022/11/21 03:55:54;;;;;;;6.53;3.90;;;6.10;99.90;;;;;;5070709;28;20283;-88
2022/11/21 03:58:27;;;;;;;8.53;4.57;;;6.00;99.90;;;;;;5075856;28;20269;-88
2022/11/21 04:00:57;;;;;;;5.57;4.07;;;6.00;99.90;;;;;;5073038;28;20238;-86
2022/11/21 04:03:29;;;;;;;5.37;4.13;;;5.90;99.90;;;;;;5057813;28;20265;-87
2022/11/21 04:06:00;;;;;;;5.83;4.23;;;5.90;99.90;;;;;;5071981;28;20209;-87
2022/11/21 04:08:31;;;;;;;6.30;3.93;;;5.90;99.90;;;;;;5077175;28;20282;-86
2022/11/21 04:11:04;;;;;;;7.50;3.73;;;5.80;99.90;;;;;;5097368;28;20234;-89
2022/11/21 04:13:37;;;;;;;5.20;4.30;;;5.70;99.90;;;;;;5059829;28;20243;-88
2022/11/21 04:16:08;;;;;;;7.00;4.27;;;5.70;99.90;;;;;;5079394;28;20706;-87
2022/11/21 04:18:39;;;;;;;5.10;4.40;;;5.70;99.90;;;;;;5059169;28;20236;-88
2022/11/21 04:21:10;;;;;;;5.63;4.50;;;5.70;99.90;;;;;;5070147;28;20234;-88
2022/11/21 04:23:42;;;;;;;4.70;4.07;;;5.70;99.90;;;;;;5066613;28;20199;-87
2022/11/21 04:26:13;;;;;;;6.77;4.63;;;5.60;99.90;;;;;;5069903;28;20292;-87
2022/11/21 04:28:46;;;;;;;6.93;5.00;;;5.60;99.90;;;;;;5065042;28;20630;-88
2022/11/21 04:31:17;;;;;;;5.37;4.13;;;5.60;99.90;;;;;;5074104;28;20235;-88
2022/11/21 04:33:48;;;;;;;7.87;4.60;;;5.50;99.90;;;;;;5064324;28;20203;-90
2022/11/21 04:36:19;;;;;;;9.60;6.23;;;5.50;99.90;;;;;;5081614;28;20329;-87
2022/11/21 04:38:50;;;;;;;13.50;7.37;;;5.50;99.90;;;;;;5073140;28;20338;-88
2022/11/21 04:41:21;;;;;;;13.33;7.97;;;5.50;99.90;;;;;;5074443;28;20208;-88
2022/11/21 04:43:54;;;;;;;10.60;6.63;;;5.50;99.90;;;;;;5083098;28;20225;-88
2022/11/21 04:46:25;;;;;;;10.60;6.97;;;5.50;99.90;;;;;;5077236;28;20882;-86
2022/11/21 04:48:57;;;;;;;11.23;7.00;;;5.60;99.90;;;;;;5081969;28;20218;-86
2022/11/21 04:51:28;;;;;;;9.40;6.40;;;5.60;99.90;;;;;;5085171;28;20235;-88
2022/11/21 04:53:59;;;;;;;8.40;5.90;;;5.60;99.90;;;;;;5083083;28;20282;-88
2022/11/21 04:56:30;;;;;;;9.10;5.30;;;5.60;99.90;;;;;;5076908;28;20267;-87
2022/11/21 04:59:03;;;;;;;7.30;5.43;;;5.60;99.90;;;;;;5061610;28;20568;-87
2022/11/21 05:01:34;;;;;;;9.93;5.53;;;5.60;99.90;;;;;;5081437;28;20204;-86
2022/11/21 05:04:05;;;;;;;9.83;6.37;;;5.60;99.90;;;;;;5083420;28;20223;-87
2022/11/21 05:06:37;;;;;;;8.90;5.73;;;5.60;99.90;;;;;;5084026;28;20256;-88
2022/11/21 05:09:08;;;;;;;8.30;5.50;;;5.70;99.90;;;;;;5077201;28;20765;-87
2022/11/21 05:14:28;;;;;;;7.37;5.53;;;5.70;99.90;;;;;;5078171;28;20211;-87
2022/11/21 05:17:01;;;;;;;6.90;5.10;;;5.70;99.90;;;;;;5085147;28;20225;-87
2022/11/21 05:19:36;;;;;;;8.70;5.20;;;5.70;99.90;;;;;;5081752;28;20219;-88
2022/11/21 05:22:07;;;;;;;7.50;5.57;;;5.70;99.90;;;;;;5071355;28;20235;-88
2022/11/21 05:24:39;;;;;;;8.73;5.47;;;5.70;99.90;;;;;;5067983;28;20290;-88
2022/11/21 05:27:11;;;;;;;9.43;6.87;;;5.70;99.90;;;;;;5082231;28;20208;-87
2022/11/21 05:29:44;;;;;;;15.63;11.73;;;5.70;99.90;;;;;;5078548;28;20821;-88
2022/11/21 05:32:15;;;;;;;21.17;14.97;;;5.70;99.90;;;;;;5073292;28;20832;-89
2022/11/21 05:34:48;;;;;;;22.47;17.23;;;5.70;99.90;;;;;;5080236;28;20203;-87
2022/11/21 05:37:20;;;;;;;19.03;14.80;;;5.70;99.90;;;;;;5081433;28;20258;-87
2022/11/21 05:39:51;;;;;;;16.00;12.77;;;5.70;99.90;;;;;;5071798;28;20260;-86
2022/11/21 05:43:44;;;;;;;14.03;9.57;;;5.70;99.90;;;;;;5078976;28;20646;-86
2022/11/21 05:45:13;;;;;;;6.80;5.67;;;5.70;99.90;;;;;;5079392;28;20234;-87
2022/11/21 05:47:45;;;;;;;8.47;5.40;;;5.70;99.90;;;;;;5077936;28;20203;-87
2022/11/21 05:50:16;;;;;;;9.80;5.40;;;5.80;99.90;;;;;;5088299;28;20321;-88
2022/11/21 05:52:48;;;;;;;7.27;5.20;;;5.70;99.90;;;;;;5086583;28;20250;-87
2022/11/21 05:55:20;;;;;;;7.03;5.13;;;5.80;99.90;;;;;;5075040;28;20714;-86
2022/11/21 05:57:51;;;;;;;12.70;5.00;;;5.70;99.90;;;;;;5069289;28;20261;-87
2022/11/21 06:00:25;;;;;;;7.13;5.40;;;5.80;99.90;;;;;;5073604;28;20302;-87
2022/11/21 06:05:43;;;;;;;7.10;5.10;;;5.70;99.90;;;;;;5076461;28;20207;-87
2022/11/21 06:08:14;;;;;;;8.03;5.03;;;5.70;99.90;;;;;;5083873;28;20234;-86
2022/11/21 06:10:45;;;;;;;6.27;4.70;;;5.70;99.90;;;;;;5080119;28;20207;-87
2022/11/21 06:13:25;;;;;;;7.43;5.20;;;5.70;99.90;;;;;;5086437;28;20247;-87
2022/11/21 06:16:01;;;;;;;10.97;5.30;;;5.70;99.90;;;;;;5062695;28;20204;-87
2022/11/21 06:18:34;;;;;;;7.17;4.80;;;5.70;99.90;;;;;;5067112;28;20228;-88
2022/11/21 06:21:06;;;;;;;7.53;5.20;;;5.70;99.90;;;;;;5080798;28;20218;-87
2022/11/21 06:23:38;;;;;;;5.70;4.47;;;5.70;99.90;;;;;;5076463;28;20289;-91
2022/11/21 06:26:12;;;;;;;6.77;4.53;;;5.70;99.90;;;;;;5067339;28;20731;-91
2022/11/21 06:28:45;;;;;;;7.57;4.47;;;5.70;99.90;;;;;;5077709;28;20291;-88
2022/11/21 06:31:20;;;;;;;6.07;4.20;;;5.70;99.90;;;;;;5079855;28;20291;-91
2022/11/21 06:33:55;;;;;;;5.73;3.67;;;5.80;99.90;;;;;;5068207;28;20210;-91
2022/11/21 06:36:27;;;;;;;6.30;4.13;;;5.80;99.90;;;;;;5076157;28;20256;-91
2022/11/21 06:38:59;;;;;;;5.07;3.87;;;5.90;99.90;;;;;;5071776;28;20236;-91
2022/11/21 06:41:30;;;;;;;6.40;3.87;;;5.90;99.90;;;;;;5062629;28;20266;-91
2022/11/21 06:44:02;;;;;;;5.07;4.03;;;6.00;99.90;;;;;;5074546;28;20198;-91
2022/11/21 06:46:34;;;;;;;4.77;3.93;;;6.00;99.90;;;;;;5068500;28;20199;-91
2022/11/21 06:49:06;;;;;;;5.77;4.17;;;5.90;99.90;;;;;;5064655;28;20849;-91
2022/11/21 06:51:37;;;;;;;6.77;4.70;;;5.90;99.90;;;;;;5065161;28;20277;-91
2022/11/21 06:54:07;;;;;;;5.70;3.93;;;6.00;99.90;;;;;;5081638;28;20204;-90
2022/11/21 06:56:46;;;;;;;5.40;3.90;;;6.00;99.90;;;;;;5084069;28;20199;-89
2022/11/21 06:59:17;;;;;;;5.47;3.80;;;6.20;99.90;;;;;;5071699;28;20772;-89
2022/11/21 07:01:50;;;;;;;5.27;3.87;;;6.30;99.90;;;;;;5060953;28;20236;-90
2022/11/21 07:04:21;;;;;;;5.57;4.10;;;6.20;99.90;;;;;;5082124;28;20294;-90
2022/11/21 07:06:52;;;;;;;6.07;3.77;;;6.00;99.90;;;;;;5075999;28;20268;-90
2022/11/21 07:09:24;;;;;;;6.67;4.07;;;5.90;99.90;;;;;;5069724;28;20204;-90
2022/11/21 07:14:47;;;;;;;7.53;4.00;;;5.70;99.90;;;;;;5069620;28;20209;-90
2022/11/21 07:17:20;;;;;;;5.53;4.00;;;5.70;99.90;;;;;;5076935;28;20204;-90
2022/11/21 07:19:51;;;;;;;5.70;4.20;;;5.60;99.90;;;;;;5079378;28;20282;-89
2022/11/21 07:22:22;;;;;;;5.60;4.03;;;5.60;99.90;;;;;;5073679;28;20283;-90
2022/11/21 07:24:53;;;;;;;5.00;3.90;;;5.50;99.90;;;;;;5072731;28;20212;-90
2022/11/21 07:27:24;;;;;;;8.03;4.60;;;5.50;99.90;;;;;;5065751;28;20321;-89
2022/11/21 07:29:56;;;;;;;6.93;4.57;;;5.50;99.90;;;;;;5058925;28;20218;-89
2022/11/21 07:32:29;;;;;;;6.07;4.33;;;5.50;99.90;;;;;;5071677;28;20249;-89
2022/11/21 07:35:01;;;;;;;7.90;4.60;;;5.50;99.90;;;;;;5065185;28;20236;-89
2022/11/21 07:37:32;;;;;;;5.93;4.47;;;5.50;99.90;;;;;;5070774;28;20258;-89
2022/11/21 07:40:04;;;;;;;6.63;4.20;;;5.40;99.90;;;;;;5074756;28;20203;-89
2022/11/21 07:42:35;;;;;;;6.10;4.50;;;5.40;99.90;;;;;;5054083;28;20591;-90
2022/11/21 07:45:06;;;;;;;6.63;4.70;;;5.40;99.90;;;;;;5072199;28;20208;-88
2022/11/21 07:47:39;;;;;;;7.10;4.40;;;5.40;99.90;;;;;;5071379;28;20199;-90
2022/11/21 07:50:11;;;;;;;6.47;4.50;;;5.30;99.90;;;;;;5076234;28;20268;-88
2022/11/21 07:52:42;;;;;;;7.20;4.73;;;5.30;99.90;;;;;;5061176;28;20639;-89
2022/11/21 07:55:13;;;;;;;5.83;4.13;;;5.30;99.90;;;;;;5056702;28;20238;-89
2022/11/21 07:57:44;;;;;;;6.60;4.20;;;5.30;99.90;;;;;;5070511;28;20230;-89
2022/11/21 08:00:17;;;;;;;6.70;4.67;;;5.30;99.90;;;;;;5069997;28;20211;-90
2022/11/21 08:02:50;;;;;;;5.80;4.40;;;5.20;99.90;;;;;;5090859;28;20199;-89
2022/11/21 08:05:21;;;;;;;6.20;3.80;;;5.30;99.90;;;;;;5077550;28;20672;-89
2022/11/21 08:07:52;;;;;;;6.07;4.20;;;5.30;99.90;;;;;;5075937;28;20298;-89
2022/11/21 08:10:23;;;;;;;5.70;4.27;;;5.30;99.90;;;;;;5073952;28;20199;-89
2022/11/21 08:12:54;;;;;;;6.07;4.10;;;5.30;99.90;;;;;;5061226;28;20212;-89
2022/11/21 08:15:25;;;;;;;6.50;4.30;;;5.30;99.90;;;;;;5057215;28;20220;-89
2022/11/21 08:17:58;;;;;;;6.13;3.97;;;5.30;99.90;;;;;;5069626;28;20662;-90
2022/11/21 08:20:29;;;;;;;7.20;4.30;;;5.30;99.90;;;;;;5080011;28;20230;-89
2022/11/21 08:23:01;;;;;;;5.83;4.20;;;5.20;99.90;;;;;;5064981;28;20231;-90
2022/11/21 08:25:32;;;;;;;7.67;4.77;;;5.30;99.90;;;;;;5076952;28;20204;-89
2022/11/21 08:28:04;;;;;;;5.57;4.23;;;5.30;99.90;;;;;;5072118;28;20243;-89
2022/11/21 08:30:36;;;;;;;6.07;4.27;;;5.30;99.90;;;;;;5062285;28;20208;-88
2022/11/21 08:33:09;;;;;;;7.20;4.10;;;5.30;99.90;;;;;;5064461;28;20261;-89
2022/11/21 08:35:41;;;;;;;6.50;4.30;;;5.30;99.90;;;;;;5070903;28;20256;-88
2022/11/21 08:38:12;;;;;;;5.90;4.43;;;5.30;99.90;;;;;;5062751;28;20213;-89
2022/11/21 08:40:44;;;;;;;6.70;4.60;;;5.30;99.90;;;;;;5090052;28;20248;-89
2022/11/21 08:43:15;;;;;;;7.10;4.60;;;5.20;99.90;;;;;;5055360;28;20302;-90
2022/11/21 08:45:47;;;;;;;7.53;5.13;;;5.20;99.90;;;;;;5061453;28;20195;-90
2022/11/21 08:48:20;;;;;;;6.57;4.70;;;5.20;99.90;;;;;;5075176;28;20238;-89
2022/11/21 08:50:51;;;;;;;8.00;5.50;;;5.30;99.90;;;;;;5078402;28;20554;-89
2022/11/21 08:53:22;;;;;;;6.67;4.90;;;5.30;99.90;;;;;;5085559;28;20231;-89
2022/11/21 08:55:54;;;;;;;6.33;4.57;;;5.30;99.90;;;;;;5070636;28;20208;-91
2022/11/21 08:58:31;;;;;;;7.50;5.40;;;5.20;99.90;;;;;;5085774;28;20199;-88
2022/11/21 09:01:02;;;;;;;6.27;5.03;;;5.20;99.90;;;;;;5065809;28;20238;-89
2022/11/21 09:03:35;;;;;;;7.43;4.83;;;5.20;99.90;;;;;;5072732;28;20276;-90
2022/11/21 09:06:06;;;;;;;8.37;5.50;;;5.20;99.90;;;;;;5074285;28;20203;-88
2022/11/21 09:08:37;;;;;;;7.77;5.63;;;5.10;99.90;;;;;;5071597;28;20264;-88
2022/11/21 09:11:11;;;;;;;6.77;5.20;;;5.10;99.90;;;;;;5061580;28;20246;-89
2022/11/21 09:13:42;;;;;;;8.73;5.60;;;5.10;99.90;;;;;;5071232;28;20544;-90
2022/11/21 09:19:02;;;;;;;6.83;5.13;;;5.10;99.90;;;;;;5051902;28;20319;-89
2022/11/21 09:21:34;;;;;;;7.90;5.80;;;5.10;99.90;;;;;;5072514;28;20214;-89
2022/11/21 09:24:06;;;;;;;8.20;6.00;;;5.10;99.90;;;;;;5065060;28;20513;-90
2022/11/21 09:26:37;;;;;;;7.60;5.87;;;5.20;99.90;;;;;;5075822;28;20272;-89
2022/11/21 09:29:09;;;;;;;7.83;5.43;;;5.20;99.90;;;;;;5070555;28;20295;-90
2022/11/21 09:31:40;;;;;;;7.03;5.80;;;5.10;99.90;;;;;;5059470;28;20306;-89
2022/11/21 09:34:13;;;;;;;9.07;5.87;;;5.10;99.90;;;;;;5075563;28;20253;-90
2022/11/21 09:36:45;;;;;;;9.97;6.60;;;5.10;99.90;;;;;;5085893;28;20199;-89
2022/11/21 09:39:16;;;;;;;8.20;6.13;;;5.10;99.90;;;;;;5084450;28;20248;-90
2022/11/21 09:41:56;;;;;;;10.03;6.27;;;5.10;99.90;;;;;;5077160;28;20231;-90
2022/11/21 09:44:53;;;;;;;9.83;6.03;;;5.20;99.90;;;;;;5081699;28;20658;-89
2022/11/21 09:47:28;;;;;;;7.93;6.20;;;5.10;99.90;;;;;;5072627;28;20238;-90
2022/11/21 09:50:04;;;;;;;8.40;6.27;;;5.10;99.90;;;;;;5055175;28;20214;-91
2022/11/21 09:52:51;;;;;;;8.90;6.27;;;5.10;99.90;;;;;;5075002;28;20203;-89
2022/11/21 09:55:28;;;;;;;8.37;6.47;;;5.10;99.90;;;;;;5073393;28;20204;-89
2022/11/21 09:58:03;;;;;;;9.93;6.80;;;5.10;99.90;;;;;;5092379;28;20263;-89
2022/11/21 10:00:35;;;;;;;10.60;6.83;;;5.10;99.90;;;;;;5094257;28;20233;-89
2022/11/21 10:03:06;;;;;;;9.33;6.57;;;5.10;99.90;;;;;;5072836;28;20208;-88
2022/11/21 10:05:44;;;;;;;9.70;6.87;;;5.10;99.90;;;;;;5060107;28;20291;-90
2022/11/21 10:08:24;;;;;;;8.87;6.60;;;5.10;99.90;;;;;;5081408;28;20215;-89
2022/11/21 10:10:57;;;;;;;10.57;6.60;;;5.10;99.90;;;;;;5060799;28;20210;-88
2022/11/21 10:13:53;;;;;;;9.23;6.83;;;5.20;99.90;;;;;;5074198;28;20207;-89
2022/11/21 10:16:31;;;;;;;10.83;7.00;;;5.20;99.90;;;;;;5064249;28;20197;-89
2022/11/21 10:19:35;;;;;;;9.80;7.17;;;5.20;99.90;;;;;;5054806;28;20220;-90
2022/11/21 10:22:45;;;;;;;8.77;6.83;;;5.10;99.90;;;;;;5054811;28;20226;-89
2022/11/21 10:25:24;;;;;;;8.53;6.67;;;5.10;99.90;;;;;;5077546;28;20905;-89
2022/11/21 10:28:03;;;;;;;8.77;6.37;;;5.10;99.90;;;;;;5097957;28;20210;-89
2022/11/21 10:30:35;;;;;;;9.37;7.07;;;5.10;99.90;;;;;;5103175;28;20264;-90
2022/11/21 10:33:14;;;;;;;10.40;7.00;;;5.10;99.90;;;;;;5088431;28;20259;-90
2022/11/21 10:35:48;;;;;;;9.67;7.13;;;5.10;99.90;;;;;;5066274;28;20245;-89
2022/11/21 10:38:23;;;;;;;9.73;7.10;;;5.00;99.90;;;;;;5084601;28;20285;-89
2022/11/21 10:41:05;;;;;;;9.60;7.17;;;5.00;99.90;;;;;;5075881;28;20223;-89
2022/11/21 10:46:28;;;;;;;11.40;6.97;;;5.00;99.90;;;;;;5059748;28;20261;-89
2022/11/21 10:49:01;;;;;;;9.03;6.73;;;5.00;99.90;;;;;;5053470;28;20267;-90
2022/11/21 10:51:46;;;;;;;10.33;7.57;;;5.00;99.90;;;;;;5063894;28;20207;-88
2022/11/21 10:54:36;;;;;;;11.30;7.30;;;4.90;99.90;;;;;;5059921;28;20343;-88
2022/11/21 10:57:14;;;;;;;10.67;7.13;;;5.00;99.90;;;;;;5057351;28;20303;-88
2022/11/21 11:00:00;;;;;;;10.30;7.57;;;5.00;99.90;;;;;;5053160;28;20303;-88
2022/11/21 11:02:31;;;;;;;8.03;6.43;;;5.00;99.90;;;;;;5051753;28;20299;-89
2022/11/21 11:05:23;;;;;;;9.77;6.70;;;4.90;99.90;;;;;;5053165;28;20293;-89
2022/11/21 11:08:07;;;;;;;9.33;7.00;;;5.00;99.90;;;;;;5052893;28;20208;-89
2022/11/21 11:10:39;;;;;;;12.30;7.30;;;5.00;99.90;;;;;;5055025;28;20205;-88
2022/11/21 11:13:34;;;;;;;9.03;6.10;;;5.00;99.90;;;;;;5051905;28;20255;-91
2022/11/21 11:16:23;;;;;;;8.97;6.53;;;5.00;99.90;;;;;;5052886;28;20227;-88
2022/11/21 11:18:59;;;;;;;9.07;6.60;;;4.90;99.90;;;;;;5052799;28;20254;-90
2022/11/21 11:21:31;;;;;;;10.83;7.87;;;5.00;99.90;;;;;;5053266;28;20337;-89
2022/11/21 11:24:21;;;;;;;12.47;7.90;;;5.00;99.90;;;;;;5055881;28;20208;-89
2022/11/21 11:26:57;;;;;;;10.17;7.57;;;5.00;99.90;;;;;;5077438;28;20289;-89
2022/11/21 11:29:34;;;;;;;9.33;7.27;;;5.10;99.90;;;;;;5070905;28;20389;-90
2022/11/21 11:32:18;;;;;;;12.23;7.47;;;5.10;99.90;;;;;;5067825;28;20223;-89
2022/11/21 11:34:59;;;;;;;10.77;7.47;;;5.10;99.90;;;;;;5080999;28;20260;-90
2022/11/21 11:37:37;;;;;;;10.33;6.90;;;5.10;99.90;;;;;;5077520;28;20239;-89
2022/11/21 11:40:19;;;;;;;10.73;7.13;;;5.10;99.90;;;;;;5063086;28;20631;-90
2022/11/21 11:50:09;;;;;;;10.13;6.70;;;5.10;99.90;;;;;;5039021;28;20745;-89
2022/11/21 11:52:26;;;;;;;13.10;7.50;;;5.10;99.90;;;;;;5066914;28;20246;-90
2022/11/21 11:55:02;;;;;;;11.27;7.53;;;5.10;99.90;;;;;;5080151;28;20246;-88
2022/11/21 11:57:36;;;;;;;11.27;7.60;;;5.10;99.90;;;;;;5053710;28;20215;-90
2022/11/21 12:00:23;;;;;;;10.90;7.83;;;5.00;99.90;;;;;;5052105;28;20242;-90
2022/11/21 12:03:02;;;;;;;10.90;7.60;;;5.00;99.90;;;;;;5051307;28;20234;-89
2022/11/21 12:05:33;;;;;;;11.20;7.60;;;4.90;99.90;;;;;;5068926;28;20221;-90
2022/11/21 12:08:16;;;;;;;11.57;7.37;;;4.90;99.90;;;;;;5052145;28;20313;-88
2022/11/21 12:15:47;;;;;;;10.97;7.90;;;4.80;99.90;;;;;;5051127;28;20697;-90
2022/11/21 12:17:08;;;;;;;10.30;7.77;;;4.80;99.90;;;;;;5051657;28;20246;-90
2022/11/21 12:19:41;;;;;;;9.77;7.37;;;4.80;99.90;;;;;;5052154;28;20204;-92
2022/11/21 12:22:12;;;;;;;15.10;7.80;;;4.80;99.90;;;;;;5081150;28;20251;-89
2022/11/21 12:24:43;;;;;;;12.73;8.30;;;4.80;99.90;;;;;;5072616;28;20282;-90
2022/11/21 12:27:27;;;;;;;11.50;7.87;;;4.80;99.90;;;;;;5079293;28;20250;-88
2022/11/21 12:30:22;;;;;;;12.37;8.00;;;4.80;99.90;;;;;;5092504;28;20207;-90
2022/11/21 12:33:01;;;;;;;12.27;8.53;;;4.80;99.90;;;;;;5077342;28;20664;-89
2022/11/21 12:36:06;;;;;;;12.27;8.60;;;4.80;99.90;;;;;;5070271;28;20628;-89
2022/11/21 12:39:23;;;;;;;13.17;8.63;;;4.80;99.90;;;;;;5077896;28;20187;-90
2022/11/21 12:45:02;;;;;;;12.37;7.90;;;4.80;99.90;;;;;;5065460;28;20208;-89
2022/11/21 12:56:50;;;;;;;11.93;7.73;;;4.70;99.90;;;;;;5072383;28;20288;-88
2022/11/21 12:59:21;;;;;;;12.07;8.33;;;4.60;99.90;;;;;;5056801;28;20208;-89
2022/11/21 13:02:00;;;;;;;10.97;8.33;;;4.70;99.90;;;;;;5086891;28;20321;-90
2022/11/21 13:04:36;;;;;;;12.73;8.43;;;4.60;99.90;;;;;;5097898;28;20194;-91
2022/11/21 13:07:09;;;;;;;12.97;8.47;;;4.60;99.90;;;;;;5092598;28;20226;-90
2022/11/21 13:09:43;;;;;;;13.20;8.27;;;4.70;99.90;;;;;;5071164;28;20654;-90
2022/11/21 13:12:24;;;;;;;11.10;8.00;;;4.70;99.90;;;;;;5075547;28;20200;-92
2022/11/21 13:15:03;;;;;;;12.60;8.97;;;4.70;99.90;;;;;;5076461;28;20294;-89
2022/11/21 13:17:45;;;;;;;11.80;9.03;;;4.70;99.90;;;;;;5076346;28;20227;-90
2022/11/21 13:20:23;;;;;;;11.23;8.47;;;4.80;99.90;;;;;;5074947;28;20241;-90
2022/11/21 13:23:00;;;;;;;12.33;8.50;;;4.80;99.90;;;;;;5075148;28;20246;-89
2022/11/21 13:25:39;;;;;;;10.33;8.37;;;4.80;99.90;;;;;;5076085;28;20620;-89
2022/11/21 13:28:40;;;;;;;12.37;8.53;;;4.80;99.90;;;;;;5073709;28;20715;-90
2022/11/21 13:31:32;;;;;;;12.93;8.07;;;4.80;99.90;;;;;;5062082;28;20656;-90
2022/11/21 13:34:03;;;;;;;13.33;8.53;;;4.90;99.90;;;;;;5067729;28;20633;-90
2022/11/21 13:36:43;;;;;;;11.97;8.07;;;4.90;99.90;;;;;;5074750;28;20228;-89
2022/11/21 13:39:37;;;;;;;12.83;8.10;;;5.10;99.90;;;;;;5078112;28;20236;-90
2022/11/21 13:45:49;;;;;;;12.40;7.97;;;4.90;99.90;;;;;;5072795;28;20675;-90
2022/11/21 13:48:56;;;;;;;10.73;7.70;;;5.00;99.90;;;;;;5032400;28;20304;-90
2022/11/21 13:51:51;;;;;;;13.33;8.70;;;4.90;99.90;;;;;;5070003;28;20731;-89
2022/11/21 13:54:57;;;;;;;12.70;8.40;;;4.90;99.90;;;;;;5075227;28;20257;-90
2022/11/21 13:57:47;;;;;;;14.20;9.10;;;4.90;99.90;;;;;;5054393;28;20239;-90
2022/11/21 14:00:47;;;;;;;10.73;7.90;;;4.80;99.90;;;;;;5054537;28;20203;-90
2022/11/21 14:03:46;;;;;;;10.90;8.43;;;4.80;99.90;;;;;;5030986;28;20250;-90
2022/11/21 14:06:29;;;;;;;14.63;8.30;;;4.80;99.90;;;;;;5076424;28;20287;-89
2022/11/21 14:09:20;;;;;;;12.47;8.13;;;4.80;99.90;;;;;;5054183;28;20208;-90
2022/11/21 14:11:54;;;;;;;11.13;7.63;;;4.80;99.90;;;;;;5068520;28;20199;-89
2022/11/21 14:14:28;;;;;;;10.47;8.30;;;4.80;99.90;;;;;;5083316;28;20669;-90